Gradyville, KY (42742)

10:44 AM CDT on October 31, 2014 (GMT -0500)
KKYCOLUM2 | Change Station
CLOSE
Current Station
Personal Weather Station
Location: Columbia, KY
Elevation: 1033 ft
Nearby Weather Stations
Active Advisory: Freeze Warning, Special Statement

Elev 1033 ft 37.03 °N, 85.39 °W | Updated 1 second ago

Overcast
Overcast
45.2 °F
Feels Like 42 °F
N
6.0
Wind Variable Wind from West
Gusts 7.0 mph

Today
High -- | Low -- °F
--% Chance of Precip.
Yesterday
High -- | Low -- °F
Precip. -- in
7:04 AM 5:45 PM
First Quarter, 56% visible
Pressure 30.01 in
Visibility 5.0 miles
Clouds Mostly Cloudy 700 ft
Mostly Cloudy 1000 ft
Overcast 4200 ft
Windchill 42 °F
Dew Point 44 °F
Humidity 96%
Rainfall 0.07 in
Snow Depth Not available.
UV 0.0 out of 12
Pollen .30 out of 12
Air Quality Not available.
Flu Activity Not available.
METAR KGLW 311535Z AUTO 29005KT 5SM BR BKN007 BKN010 OVC042 08/08 A3001 RMK AO2 T00820082

More Conditions Fewer Conditions

Pressure 30.01 in
Visibility 5.0 miles
Clouds Mostly Cloudy 700 ft
Mostly Cloudy 1000 ft
Overcast 4200 ft
Windchill 42 °F
Dew Point 44 °F
Humidity 96%
Rainfall 0.07 in
Snow Depth Not available.
UV 0.0 out of 12
Pollen .30 out of 12
Air Quality Not available.
Flu Activity Not available.
METAR KGLW 311535Z AUTO 29005KT 5SM BR BKN007 BKN010 OVC042 08/08 A3001 RMK AO2 T00820082

More Conditions Fewer Conditions

10-Day Weather Forecast

Almanac

Astronomy

Oct. 31, 2014 Rise Set
Actual Time
Civil Twilight
Nautical Twilight
Astronomical Twilight
Moon
Length of Visible Light
Length of Day
Tomorrow will be .
, % of the Moon is Illuminated

Today's Extremes

State Highs State Lows

Community

WunderPhotos

Upload Photos

1,766,644 photos uploaded!

WunderBlogs® & News

Nearby

Air Quality

  Air Quality AQ Index Pollutant
Not available.

Snow Depth

Station Depth Elevation

Earthquake Activity

City Distance Mag. Time & Date
Minimum magnitude displayed is 2.5.

Coastal Water Temperatures

Place Temperature

Nearby Weather Stations